createdAt,value
2022-10-12T00:02:05.221Z,101096.88
2022-10-12T00:04:31.650Z,101097.75
2022-10-12T00:06:58.031Z,101101.25
2022-10-12T00:09:24.395Z,101108.28
2022-10-12T00:11:50.759Z,101100.38
2022-10-12T00:14:17.134Z,101102.09
2022-10-12T00:16:43.474Z,101113.41
2022-10-12T00:19:13.185Z,101117.00
2022-10-12T00:21:40.352Z,101113.53
2022-10-12T00:24:07.140Z,101102.97
2022-10-12T00:26:33.877Z,101104.72
2022-10-12T00:29:02.100Z,101094.19
2022-10-12T00:31:30.275Z,101101.09
2022-10-12T00:34:00.190Z,101102.94
2022-10-12T00:36:29.998Z,101102.06
2022-10-12T00:38:56.668Z,101101.09
2022-10-12T00:41:26.343Z,101090.63
2022-10-12T00:43:57.820Z,101090.63
2022-10-12T00:46:41.361Z,101095.91
2022-10-12T00:49:20.173Z,101086.25
2022-10-12T00:51:51.925Z,101094.19
2022-10-12T00:54:23.631Z,101095.03
2022-10-12T00:56:52.961Z,101097.56
2022-10-12T00:59:28.371Z,101096.78
2022-10-12T01:01:55.960Z,101094.00
2022-10-12T01:04:23.711Z,101092.25
2022-10-12T01:06:51.091Z,101100.16
2022-10-12T01:09:17.929Z,101093.13
2022-10-12T01:11:44.244Z,101100.09
2022-10-12T01:14:11.536Z,101099.28
2022-10-12T01:16:37.861Z,101094.88
2022-10-12T01:19:38.554Z,101094.00
2022-10-12T01:22:11.935Z,101090.38
2022-10-12T01:25:01.163Z,101093.00
2022-10-12T01:27:40.395Z,101093.94
2022-10-12T01:30:29.010Z,101094.81
2022-10-12T01:33:17.658Z,101092.16
2022-10-12T01:35:54.642Z,101088.72
2022-10-12T01:38:29.976Z,101085.97
2022-10-12T01:41:01.740Z,101086.84
2022-10-12T01:43:40.502Z,101089.47
2022-10-12T01:46:08.123Z,101085.00
2022-10-12T01:48:34.586Z,101084.19
2022-10-12T01:51:02.548Z,101083.38
2022-10-12T01:53:41.659Z,101084.19
2022-10-12T01:56:38.425Z,101088.56
2022-10-12T01:59:22.522Z,101079.72
2022-10-12T02:02:04.096Z,101086.75
2022-10-12T02:04:49.252Z,101077.97
2022-10-12T02:07:32.613Z,101079.66
2022-10-12T02:10:02.326Z,101071.75
2022-10-12T02:12:31.461Z,101076.97
2022-10-12T02:15:02.624Z,101066.47
2022-10-12T02:17:30.269Z,101070.88
2022-10-12T02:19:59.339Z,101069.03
2022-10-12T02:22:33.997Z,101065.59
2022-10-12T02:25:04.090Z,101070.84
2022-10-12T02:27:33.513Z,101070.78
2022-10-12T02:30:00.120Z,101061.13
2022-10-12T02:32:41.679Z,101059.38
2022-10-12T02:35:10.300Z,101053.22
2022-10-12T02:37:43.982Z,101054.13
2022-10-12T02:40:21.554Z,101058.50
2022-10-12T02:43:09.911Z,101056.75
2022-10-12T02:45:40.816Z,101054.06
2022-10-12T02:48:09.424Z,101056.72
2022-10-12T02:50:36.464Z,101062.06
2022-10-12T02:53:04.391Z,101056.84
2022-10-12T02:55:31.415Z,101059.44
2022-10-12T02:57:57.839Z,101044.44
2022-10-12T03:00:24.336Z,101047.94
2022-10-12T03:02:50.705Z,101054.91
2022-10-12T03:05:17.070Z,101049.69
2022-10-12T03:07:43.463Z,101042.59
2022-10-12T03:10:09.843Z,101050.41
2022-10-12T03:12:36.229Z,101046.03
2022-10-12T03:15:02.660Z,101049.59
2022-10-12T03:17:29.014Z,101048.72
2022-10-12T03:19:55.365Z,101050.41
2022-10-12T03:22:21.773Z,101049.59
2022-10-12T03:24:48.487Z,101051.34
2022-10-12T03:27:14.897Z,101053.06
2022-10-12T03:29:41.280Z,101055.75
2022-10-12T03:32:07.656Z,101050.41
2022-10-12T03:34:34.011Z,101055.66
2022-10-12T03:37:00.353Z,101050.41
2022-10-12T03:39:26.704Z,101063.56
2022-10-12T03:41:53.100Z,101062.69
2022-10-12T03:44:19.461Z,101057.31
2022-10-12T03:46:45.787Z,101051.16
2022-10-12T03:49:12.150Z,101055.53
2022-10-12T03:51:38.540Z,101059.94
2022-10-12T03:54:05.108Z,101050.28
2022-10-12T03:56:31.449Z,101053.84
2022-10-12T03:58:57.848Z,101050.25
2022-10-12T04:01:24.568Z,101047.69
2022-10-12T04:03:51.044Z,101048.47
2022-10-12T04:06:17.441Z,101053.78
2022-10-12T04:08:48.341Z,101057.34
2022-10-12T04:11:16.931Z,101048.53
2022-10-12T04:13:43.963Z,101055.44
2022-10-12T04:16:10.417Z,101052.00
2022-10-12T04:18:36.879Z,101058.13
2022-10-12T04:21:15.746Z,101056.28
2022-10-12T04:23:43.033Z,101051.91
2022-10-12T04:26:09.909Z,101050.19
2022-10-12T04:28:36.308Z,101059.91
2022-10-12T04:31:02.744Z,101060.69
2022-10-12T04:33:29.121Z,101057.16
2022-10-12T04:35:55.489Z,101056.22
2022-10-12T04:38:21.880Z,101066.75
2022-10-12T04:40:49.028Z,101065.06
2022-10-12T04:43:16.554Z,101064.19
2022-10-12T04:45:42.952Z,101054.47
2022-10-12T04:48:09.305Z,101054.47
2022-10-12T04:50:36.012Z,101060.66
2022-10-12T04:53:02.376Z,101056.28
2022-10-12T04:55:28.892Z,101053.53
2022-10-12T04:57:55.245Z,101053.59
2022-10-12T05:00:21.641Z,101051.84
2022-10-12T05:02:48.025Z,101050.94
2022-10-12T05:05:14.475Z,101056.31
2022-10-12T05:07:41.082Z,101054.56
2022-10-12T05:10:08.125Z,101050.09
2022-10-12T05:12:34.448Z,101061.56
2022-10-12T05:15:00.829Z,101051.94
2022-10-12T05:17:27.192Z,101057.19
2022-10-12T05:19:53.555Z,101053.69
2022-10-12T05:22:19.965Z,101057.28
2022-10-12T05:24:50.043Z,101053.78
2022-10-12T05:27:19.276Z,101057.28
2022-10-12T05:29:45.695Z,101061.72
2022-10-12T05:32:12.031Z,101066.00
2022-10-12T05:34:38.414Z,101055.44
2022-10-12T05:37:04.949Z,101064.13
2022-10-12T05:39:31.551Z,101060.59
2022-10-12T05:41:58.640Z,101058.00
2022-10-12T05:44:25.024Z,101051.00
2022-10-12T05:46:51.395Z,101051.91
2022-10-12T05:49:17.799Z,101048.38
2022-10-12T05:51:44.376Z,101052.72
2022-10-12T05:54:10.727Z,101051.94
2022-10-12T05:56:37.087Z,101063.44
2022-10-12T05:59:04.060Z,101051.06
2022-10-12T06:01:30.943Z,101059.84
2022-10-12T06:03:57.332Z,101063.44
2022-10-12T06:06:23.838Z,101069.56
2022-10-12T06:08:50.311Z,101062.53
2022-10-12T06:11:16.817Z,101065.97
2022-10-12T06:13:43.166Z,101059.84
2022-10-12T06:16:09.522Z,101063.22
2022-10-12T06:18:35.837Z,101059.03
2022-10-12T06:21:31.996Z,101056.50
2022-10-12T06:23:48.622Z,101056.63
2022-10-12T06:26:16.287Z,101062.81
2022-10-12T06:28:43.529Z,101051.53
2022-10-12T06:31:11.116Z,101053.34
2022-10-12T06:33:37.475Z,101056.00
2022-10-12T06:36:03.960Z,101056.00
2022-10-12T06:38:30.285Z,101062.16
2022-10-12T06:40:56.632Z,101056.06
2022-10-12T06:43:24.153Z,101060.50
2022-10-12T06:45:50.607Z,101057.03
2022-10-12T06:48:18.750Z,101057.94
2022-10-12T06:50:46.511Z,101062.34
2022-10-12T06:53:12.833Z,101065.88
2022-10-12T06:55:40.381Z,101060.66
2022-10-12T06:58:06.721Z,101063.28
2022-10-12T07:00:33.107Z,101060.66
2022-10-12T07:02:59.462Z,101056.31
2022-10-12T07:05:25.881Z,101051.03
2022-10-12T07:07:52.205Z,101061.63
2022-10-12T07:10:18.571Z,101067.78
2022-10-12T07:12:44.988Z,101071.34
2022-10-12T07:15:11.409Z,101064.31
2022-10-12T07:17:38.036Z,101061.69
2022-10-12T07:20:05.670Z,101060.81
2022-10-12T07:22:32.114Z,101066.94
2022-10-12T07:24:58.603Z,101060.78
2022-10-12T07:27:24.972Z,101067.84
2022-10-12T07:29:51.530Z,101067.81
2022-10-12T07:32:17.956Z,101072.22
2022-10-12T07:34:44.735Z,101069.53
2022-10-12T07:37:11.505Z,101075.63
2022-10-12T07:39:38.071Z,101077.47
2022-10-12T07:42:04.492Z,101077.41
2022-10-12T07:44:31.588Z,101081.81
2022-10-12T07:46:58.344Z,101073.00
2022-10-12T07:49:24.665Z,101077.34
2022-10-12T07:51:51.021Z,101069.41
2022-10-12T07:54:21.051Z,101064.00
2022-10-12T07:56:49.124Z,101066.66
2022-10-12T07:59:16.554Z,101071.09
2022-10-12T08:01:43.508Z,101072.78
2022-10-12T08:04:10.344Z,101069.97
2022-10-12T08:06:36.990Z,101071.75
2022-10-12T08:09:04.022Z,101077.03
2022-10-12T08:11:30.532Z,101076.06
2022-10-12T08:13:56.998Z,101073.28
2022-10-12T08:16:23.944Z,101072.31
2022-10-12T08:18:50.342Z,101077.56
2022-10-12T08:21:17.833Z,101073.13
2022-10-12T08:23:45.076Z,101082.03
2022-10-12T08:26:12.141Z,101072.81
2022-10-12T08:28:38.613Z,101068.16
2022-10-12T08:31:10.137Z,101072.66
2022-10-12T08:33:36.890Z,101073.03
2022-10-12T08:36:05.472Z,101062.50
2022-10-12T08:38:32.019Z,101066.00
2022-10-12T08:41:19.013Z,101062.41
2022-10-12T08:44:04.279Z,101056.94
2022-10-12T08:46:30.838Z,101058.41
2022-10-12T08:49:16.343Z,101057.31
2022-10-12T08:52:02.694Z,101047.59
2022-10-12T08:54:38.641Z,101052.94
2022-10-12T08:57:05.114Z,101049.78
2022-10-12T08:59:33.370Z,101046.72
2022-10-12T09:02:25.717Z,101048.16
2022-10-12T09:05:01.296Z,101043.66
2022-10-12T09:07:36.066Z,101049.84
2022-10-12T09:10:17.336Z,101040.06
2022-10-12T09:13:05.448Z,101040.25
2022-10-12T09:15:36.810Z,101042.88
2022-10-12T09:18:11.582Z,101047.25
2022-10-12T09:20:47.011Z,101037.75
2022-10-12T09:23:16.381Z,101038.91
2022-10-12T09:25:43.199Z,101033.16
2022-10-12T09:28:19.772Z,101031.41
2022-10-12T09:31:02.417Z,101032.66
2022-10-12T09:33:37.995Z,101032.31
2022-10-12T09:36:04.720Z,101022.00
2022-10-12T09:38:31.159Z,101024.31
2022-10-12T09:40:57.488Z,101034.69
2022-10-12T09:43:24.189Z,101022.91
2022-10-12T09:45:51.584Z,101024.31
2022-10-12T09:48:20.910Z,101025.94
2022-10-12T09:51:03.298Z,101026.34
2022-10-12T09:53:34.066Z,101018.22
2022-10-12T09:56:30.204Z,101021.75
2022-10-12T09:59:02.098Z,101028.94
2022-10-12T10:01:30.543Z,101023.09
2022-10-12T10:04:13.477Z,101021.69
2022-10-12T10:06:45.434Z,101022.38
2022-10-12T10:09:26.401Z,101017.19
2022-10-12T10:11:53.170Z,101017.03
2022-10-12T10:14:19.657Z,101015.81
2022-10-12T10:16:51.543Z,101009.63
2022-10-12T10:19:21.300Z,101009.00
2022-10-12T10:21:47.873Z,101007.69
2022-10-12T10:24:27.911Z,101014.09
2022-10-12T10:26:56.554Z,101001.44
2022-10-12T10:29:32.275Z,100996.22
2022-10-12T10:32:24.428Z,100998.34
2022-10-12T10:35:05.518Z,101000.38
2022-10-12T10:37:33.304Z,100996.88
2022-10-12T10:40:00.806Z,101006.00
2022-10-12T10:42:31.882Z,101004.81
2022-10-12T10:45:08.603Z,101003.78
2022-10-12T10:47:43.251Z,101010.00
2022-10-12T10:50:25.426Z,101005.47
2022-10-12T10:52:58.579Z,101006.41
2022-10-12T10:55:47.170Z,100996.75
2022-10-12T10:58:23.492Z,100996.97
2022-10-12T11:00:53.286Z,100989.91
2022-10-12T11:03:29.878Z,100986.75
2022-10-12T11:06:20.524Z,100983.66
2022-10-12T11:08:50.784Z,100981.66
2022-10-12T11:11:23.522Z,100977.22
2022-10-12T11:14:03.966Z,100978.78
2022-10-12T11:16:39.797Z,100974.69
2022-10-12T11:19:42.254Z,100977.50
2022-10-12T11:22:16.823Z,100975.31
2022-10-12T11:24:52.287Z,100954.94
2022-10-12T11:27:38.254Z,100956.06
2022-10-12T11:30:14.045Z,100961.81
2022-10-12T11:32:48.458Z,100957.81
2022-10-12T11:35:21.134Z,100957.81
2022-10-12T11:38:00.487Z,100957.16
2022-10-12T11:40:55.440Z,100957.53
2022-10-12T11:43:24.009Z,100953.09
2022-10-12T11:45:57.077Z,100946.66
2022-10-12T11:48:28.743Z,100946.34
2022-10-12T11:51:02.855Z,100937.69
2022-10-12T11:53:53.686Z,100934.31
2022-10-12T11:56:48.692Z,100938.56
2022-10-12T11:59:38.915Z,100930.16
2022-10-12T12:02:14.779Z,100931.09
2022-10-12T12:04:44.450Z,100930.34
2022-10-12T12:07:16.970Z,100927.66
2022-10-12T12:09:50.083Z,100927.53
2022-10-12T12:12:23.071Z,100918.47
2022-10-12T12:14:55.316Z,100914.78
2022-10-12T12:17:21.911Z,100919.34
2022-10-12T12:19:50.607Z,100907.44
2022-10-12T12:22:24.637Z,100911.94
2022-10-12T12:24:54.538Z,100918.97
2022-10-12T12:27:33.884Z,100912.03
2022-10-12T12:30:02.762Z,100913.34
2022-10-12T12:32:45.975Z,100911.69
2022-10-12T12:35:29.073Z,100903.53
2022-10-12T12:38:08.098Z,100909.06
2022-10-12T12:40:35.287Z,100908.94
2022-10-12T12:43:56.715Z,100907.19
2022-10-12T12:46:26.044Z,100909.72
2022-10-12T12:48:52.342Z,100900.13
2022-10-12T12:51:26.675Z,100895.78
2022-10-12T12:54:00.431Z,100898.97
2022-10-12T12:56:49.671Z,100893.94
2022-10-12T12:59:27.867Z,100891.53
2022-10-12T13:02:31.751Z,100892.63
2022-10-12T13:05:36.589Z,100885.78
2022-10-12T13:08:26.057Z,100880.00
2022-10-12T13:10:55.512Z,100881.56
2022-10-12T13:13:39.180Z,100876.25
2022-10-12T13:17:09.579Z,100877.44
2022-10-12T13:19:15.780Z,100871.75
2022-10-12T13:21:48.935Z,100864.97
2022-10-12T13:24:22.170Z,100853.13
2022-10-12T13:26:51.556Z,100866.06
2022-10-12T13:29:41.522Z,100859.25
2022-10-12T13:32:20.579Z,100858.66
2022-10-12T13:34:49.863Z,100854.47
2022-10-12T13:37:16.872Z,100854.38
2022-10-12T13:39:46.895Z,100868.13
2022-10-12T13:42:17.912Z,100856.84
2022-10-12T13:44:47.268Z,100855.44
2022-10-12T13:47:43.022Z,100865.03
2022-10-12T13:50:18.754Z,100862.66
2022-10-12T13:52:53.184Z,100865.78
2022-10-12T13:55:26.955Z,100864.09
2022-10-12T13:57:53.374Z,100855.97
2022-10-12T14:00:25.284Z,100859.81
2022-10-12T14:02:56.836Z,100858.09
2022-10-12T14:05:26.078Z,100857.78
2022-10-12T14:07:54.721Z,100855.88
2022-10-12T14:10:28.740Z,100862.53
2022-10-12T14:12:56.671Z,100854.06
2022-10-12T14:15:27.719Z,100856.19
2022-10-12T14:17:54.847Z,100844.25
2022-10-12T14:20:37.344Z,100845.56
2022-10-12T14:23:12.872Z,100831.19
2022-10-12T14:25:51.225Z,100826.28
2022-10-12T14:28:32.682Z,100820.41
2022-10-12T14:30:59.190Z,100816.28
2022-10-12T14:33:26.619Z,100817.75
2022-10-12T14:36:15.504Z,100809.22
2022-10-12T14:38:45.503Z,100817.72
2022-10-12T14:41:38.630Z,100817.25
2022-10-12T14:44:21.759Z,100820.84
2022-10-12T14:46:51.088Z,100828.16
2022-10-12T14:49:39.827Z,100825.56
2022-10-12T14:52:07.514Z,100839.91
2022-10-12T14:54:34.266Z,100836.84
2022-10-12T14:57:12.247Z,100831.75
2022-10-12T14:59:38.852Z,100833.38
2022-10-12T15:02:15.010Z,100830.53
2022-10-12T15:04:41.422Z,100821.84
2022-10-12T15:07:19.463Z,100823.88
2022-10-12T15:09:46.858Z,100825.19
2022-10-12T15:12:16.427Z,100811.41
2022-10-12T15:14:43.315Z,100819.94
2022-10-12T15:17:14.778Z,100817.69
2022-10-12T15:19:43.330Z,100809.94
2022-10-12T15:22:29.912Z,100814.22
2022-10-12T15:24:56.293Z,100817.09
2022-10-12T15:27:22.684Z,100813.53
2022-10-12T15:29:49.119Z,100818.91
2022-10-12T15:32:17.744Z,100817.44
2022-10-12T15:34:44.947Z,100812.06
2022-10-12T15:37:11.434Z,100805.44
2022-10-12T15:39:37.865Z,100805.13
2022-10-12T15:42:04.428Z,100791.19
2022-10-12T15:44:30.772Z,100790.91
2022-10-12T15:46:57.145Z,100789.84
2022-10-12T15:49:26.317Z,100791.00
2022-10-12T15:51:54.840Z,100780.53
2022-10-12T15:54:21.247Z,100786.66
2022-10-12T15:56:47.600Z,100781.97
2022-10-12T15:59:14.048Z,100783.03
2022-10-12T16:01:42.490Z,100785.59
2022-10-12T16:04:13.435Z,100788.19
2022-10-12T16:06:40.035Z,100775.28
2022-10-12T16:09:06.513Z,100776.56
2022-10-12T16:11:32.848Z,100773.28
2022-10-12T16:13:59.483Z,100770.75
2022-10-12T16:16:25.985Z,100771.06
2022-10-12T16:18:53.833Z,100777.00
2022-10-12T16:21:20.374Z,100774.72
2022-10-12T16:23:46.764Z,100779.03
2022-10-12T16:26:15.157Z,100775.19
2022-10-12T16:28:42.463Z,100769.97
2022-10-12T16:31:15.758Z,100771.69
2022-10-12T16:33:42.328Z,100775.31
2022-10-12T16:36:10.656Z,100767.03
2022-10-12T16:38:37.113Z,100773.59
2022-10-12T16:41:08.639Z,100779.28
2022-10-12T16:43:35.027Z,100774.16
2022-10-12T16:46:01.396Z,100779.69
2022-10-12T16:48:27.721Z,100781.47
2022-10-12T16:50:54.121Z,100791.34
2022-10-12T16:53:20.464Z,100785.09
2022-10-12T16:55:46.855Z,100788.91
2022-10-12T16:58:13.198Z,100786.34
2022-10-12T17:00:40.926Z,100792.13
2022-10-12T17:03:08.648Z,100788.03
2022-10-12T17:05:35.165Z,100785.31
2022-10-12T17:08:01.522Z,100786.19
2022-10-12T17:10:28.046Z,100793.25
2022-10-12T17:12:54.412Z,100786.66
2022-10-12T17:15:20.797Z,100787.75
2022-10-12T17:17:47.139Z,100790.91
2022-10-12T17:20:13.528Z,100778.50
2022-10-12T17:22:39.925Z,100795.06
2022-10-12T17:25:06.623Z,100787.88
2022-10-12T17:27:32.975Z,100790.88
2022-10-12T17:29:59.509Z,100792.69
2022-10-12T17:32:26.475Z,100799.44
2022-10-12T17:34:53.031Z,100800.19
2022-10-12T17:37:21.124Z,100795.06
2022-10-12T17:39:48.330Z,100789.84
2022-10-12T17:42:15.337Z,100795.81
2022-10-12T17:44:41.918Z,100792.16
2022-10-12T17:47:08.561Z,100796.69
2022-10-12T17:49:34.968Z,100801.69
2022-10-12T17:52:01.458Z,100797.72
2022-10-12T17:54:28.100Z,100798.81
2022-10-12T17:56:55.600Z,100798.47
2022-10-12T17:59:22.577Z,100804.19
2022-10-12T18:01:49.431Z,100803.69
2022-10-12T18:04:16.183Z,100809.69
2022-10-12T18:06:42.681Z,100805.78
2022-10-12T18:09:09.256Z,100802.34
2022-10-12T18:11:37.480Z,100801.13
2022-10-12T18:14:03.936Z,100799.25
2022-10-12T18:16:32.999Z,100802.31
2022-10-12T18:19:01.748Z,100803.19
2022-10-12T18:21:30.919Z,100811.16
2022-10-12T18:23:57.291Z,100803.00
2022-10-12T18:26:24.886Z,100793.34
2022-10-12T18:28:53.219Z,100782.44
2022-10-12T18:31:25.136Z,100785.97
2022-10-12T18:33:52.823Z,100789.47
2022-10-12T18:36:20.371Z,100787.31
2022-10-12T18:38:47.459Z,100794.84
2022-10-12T18:41:16.979Z,100796.78
2022-10-12T18:43:43.633Z,100809.25
2022-10-12T18:46:12.300Z,100801.41
2022-10-12T18:48:39.227Z,100799.91
2022-10-12T18:51:18.505Z,100793.84
2022-10-12T18:53:45.593Z,100806.34
2022-10-12T18:56:12.632Z,100816.41
2022-10-12T18:58:40.520Z,100817.47
2022-10-12T19:01:15.683Z,100825.63
2022-10-12T19:03:42.424Z,100817.69
2022-10-12T19:06:14.220Z,100805.59
2022-10-12T19:08:43.380Z,100803.19
2022-10-12T19:11:11.020Z,100817.75
2022-10-12T19:13:37.982Z,100827.72
2022-10-12T19:16:15.115Z,100827.53
2022-10-12T19:18:42.420Z,100826.59
2022-10-12T19:21:14.818Z,100823.84
2022-10-12T19:23:42.144Z,100820.97
2022-10-12T19:26:18.834Z,100822.94
2022-10-12T19:28:46.002Z,100824.81
2022-10-12T19:31:21.850Z,100829.97
2022-10-12T19:33:48.459Z,100825.34
2022-10-12T19:36:17.896Z,100832.75
2022-10-12T19:38:46.118Z,100834.53
2022-10-12T19:41:13.170Z,100818.88
2022-10-12T19:43:39.923Z,100824.53
2022-10-12T19:46:09.609Z,100818.50
2022-10-12T19:48:37.490Z,100824.66
2022-10-12T19:51:10.537Z,100826.56
2022-10-12T19:53:37.744Z,100824.22
2022-10-12T19:56:07.065Z,100819.97
2022-10-12T19:58:33.587Z,100817.16
2022-10-12T20:01:08.472Z,100813.94
2022-10-12T20:03:35.624Z,100824.75
2022-10-12T20:06:06.029Z,100826.59
2022-10-12T20:08:33.024Z,100831.09
2022-10-12T20:10:59.614Z,100834.66
2022-10-12T20:13:26.059Z,100830.38
2022-10-12T20:15:53.289Z,100824.03
2022-10-12T20:18:19.788Z,100821.38
2022-10-12T20:20:46.455Z,100815.16
2022-10-12T20:23:13.269Z,100821.38
2022-10-12T20:25:41.453Z,100834.38
2022-10-12T20:28:08.010Z,100834.41
2022-10-12T20:30:34.706Z,100826.44
2022-10-12T20:33:01.146Z,100828.91
2022-10-12T20:35:28.228Z,100823.53
2022-10-12T20:37:55.028Z,100828.81
2022-10-12T20:40:21.444Z,100842.03
2022-10-12T20:42:47.826Z,100854.78
2022-10-12T20:45:14.560Z,100850.59
2022-10-12T20:47:44.345Z,100840.94
2022-10-12T20:50:12.674Z,100817.97
2022-10-12T20:52:39.641Z,100823.31
2022-10-12T20:55:06.463Z,100828.56
2022-10-12T20:57:32.901Z,100817.47
2022-10-12T20:59:59.275Z,100810.34
2022-10-12T21:02:25.876Z,100820.47
2022-10-12T21:04:52.407Z,100823.31
2022-10-12T21:07:19.014Z,100829.56
2022-10-12T21:09:45.535Z,100835.16
2022-10-12T21:12:11.913Z,100830.75
2022-10-12T21:14:38.280Z,100834.44
2022-10-12T21:17:04.762Z,100828.53
2022-10-12T21:19:31.093Z,100821.66
2022-10-12T21:21:57.543Z,100828.84
2022-10-12T21:24:24.070Z,100826.34
2022-10-12T21:26:51.774Z,100826.44
2022-10-12T21:29:18.327Z,100823.97
2022-10-12T21:31:44.941Z,100820.56
2022-10-12T21:34:11.746Z,100816.31
2022-10-12T21:36:38.856Z,100816.25
2022-10-12T21:39:11.904Z,100815.34
2022-10-12T21:41:38.698Z,100809.28
2022-10-12T21:44:05.318Z,100803.81
2022-10-12T21:46:33.778Z,100802.34
2022-10-12T21:49:01.794Z,100807.44
2022-10-12T21:51:30.402Z,100808.63
2022-10-12T21:53:57.218Z,100801.03
2022-10-12T21:56:31.759Z,100810.56
2022-10-12T21:58:59.926Z,100800.88
2022-10-12T22:01:34.556Z,100809.84
2022-10-12T22:04:03.130Z,100800.78
2022-10-12T22:06:30.038Z,100805.28
2022-10-12T22:08:58.753Z,100816.91
2022-10-12T22:11:27.205Z,100810.91
2022-10-12T22:13:59.131Z,100815.47
2022-10-12T22:16:26.389Z,100819.97
2022-10-12T22:18:52.736Z,100816.56
2022-10-12T22:21:19.341Z,100824.50
2022-10-12T22:23:46.139Z,100812.28
2022-10-12T22:26:18.843Z,100807.13
2022-10-12T22:28:45.815Z,100820.25
2022-10-12T22:31:14.241Z,100826.63
2022-10-12T22:33:41.032Z,100824.06
2022-10-12T22:36:08.399Z,100826.81
2022-10-12T22:38:35.368Z,100832.22
2022-10-12T22:41:06.234Z,100826.13
2022-10-12T22:43:34.209Z,100830.50
2022-10-12T22:46:00.921Z,100833.09
2022-10-12T22:48:27.995Z,100836.84
2022-10-12T22:50:55.131Z,100831.66
2022-10-12T22:53:23.325Z,100822.91
2022-10-12T22:55:53.798Z,100822.69
2022-10-12T22:58:20.124Z,100816.59
2022-10-12T23:00:46.515Z,100814.88
2022-10-12T23:03:12.902Z,100812.19
2022-10-12T23:05:39.240Z,100811.38
2022-10-12T23:08:05.649Z,100808.78
2022-10-12T23:10:32.180Z,100814.00
2022-10-12T23:12:58.568Z,100817.63
2022-10-12T23:15:24.967Z,100808.84
2022-10-12T23:17:51.285Z,100814.38
2022-10-12T23:20:17.650Z,100802.84
2022-10-12T23:22:43.990Z,100801.94
2022-10-12T23:25:10.394Z,100809.09
2022-10-12T23:27:36.781Z,100802.03
2022-10-12T23:30:03.366Z,100803.00
2022-10-12T23:32:30.405Z,100800.41
2022-10-12T23:34:56.743Z,100806.69
2022-10-12T23:37:23.095Z,100809.31
2022-10-12T23:39:49.537Z,100804.91
2022-10-12T23:42:16.190Z,100812.84
2022-10-12T23:44:42.790Z,100801.25
2022-10-12T23:47:09.145Z,100805.69
2022-10-12T23:49:35.575Z,100800.28
2022-10-12T23:52:02.037Z,100808.28
2022-10-12T23:54:28.381Z,100810.91
2022-10-12T23:56:54.815Z,100810.00
2022-10-12T23:59:21.191Z,100814.47
